KDHT/DHT METAR and TAF weather

Enter ICAO airport designator
Station Type Date Time Source
KDHT METAR 2020/04/05 16:53 UTC NOAA

KDHT 051653Z AUTO 20014KT 10SM CLR 17/05 A2994 RMK AO2 SLP116 T01670050


Station Type Date Time Source
KDHT Decoded METAR 2020/04/05 16:53 UTC NOAA

DALHART MUNICIPAL AIRPORT, TX, United States (KDHT) 36-01N 102-33W 1217M
Apr 05, 2020 - 12:53 PM EDT / 2020.04.05 1653 UTC
Wind: from the SSW (200 degrees) at 16 MPH (14 KT):0
Visibility: 10 mile(s):0
Sky conditions: clear
Temperature: 62.1 F (16.7 C)
Dew Point: 41.0 F (5.0 C)
Relative Humidity: 45%
Pressure (altimeter): 29.94 in. Hg (1013 hPa)
ob: KDHT 051653Z AUTO 20014KT 10SM CLR 17/05 A2994 RMK AO2 SLP116 T01670050
cycle: 17

Station Type Date Time Source
KDHT TAF 2020/04/05 13:10 UTC NOAA

TAF
AMD KDHT 051308Z 0513/0612 19014KT 3SM BR OVC005
TEMPO 0513/0515 1/2SM FG OVC002
FM051500 20017KT P6SM SKC
FM051900 20021G29KT P6SM SKC
FM060200 19012KT P6SM SKC

Example: see airport list